Time;durP1;ratioP1;P1;durP2;ratioP2;P2;SDS_P1;SDS_P2;PMS_P1;PMS_P2;Temp;Humidity;BMP_temperature;BMP_pressure;BME280_temperature;BME280_humidity;BME280_pressure;Samples;Min_cycle;Max_cycle;Signal;HPM_P1;HPM_P2
2023/10/11 00:00:40;;;;;;;9.77;4.47;;;;;;;20.00;53.29;99572.47;4913911;29;20048;-75
2023/10/11 00:05:55;;;;;;;8.90;4.97;;;;;;;20.02;53.35;99567.84;4914382;29;20056;-75
2023/10/11 00:08:26;;;;;;;11.75;4.68;;;;;;;20.02;53.25;99565.16;4914558;29;20055;-75
2023/10/11 00:10:54;;;;;;;10.40;4.43;;;;;;;20.02;52.91;99557.16;4913393;29;20494;-75
2023/10/11 00:13:22;;;;;;;9.43;4.40;;;;;;;20.03;52.92;99566.00;4913828;29;20091;-78
2023/10/11 00:15:51;;;;;;;9.30;4.80;;;;;;;20.03;52.79;99552.63;4913447;29;20394;-78
2023/10/11 00:18:30;;;;;;;10.63;4.80;;;;;;;20.00;52.66;99547.63;4914560;29;20565;-76
2023/10/11 00:20:58;;;;;;;8.90;4.55;;;;;;;20.01;52.74;99563.50;4913248;29;20131;-76
2023/10/11 00:23:27;;;;;;;9.63;4.25;;;;;;;19.99;52.83;99552.13;4902311;29;20054;-75
2023/10/11 00:25:58;;;;;;;6.28;4.50;;;;;;;19.97;53.12;99547.88;4914344;29;20107;-75
2023/10/11 00:28:26;;;;;;;8.35;4.75;;;;;;;19.97;53.42;99550.56;4914614;29;20426;-76
2023/10/11 00:30:59;;;;;;;8.45;4.53;;;;;;;19.92;53.06;99549.19;4914548;29;20063;-76
2023/10/11 00:33:28;;;;;;;8.18;4.75;;;;;;;19.93;52.81;99545.50;4906718;29;20501;-76
2023/10/11 00:36:01;;;;;;;9.15;4.30;;;;;;;19.90;52.85;99543.19;4914470;29;20094;-76
2023/10/11 00:38:27;;;;;;;10.57;4.53;;;;;;;19.88;53.05;99542.47;4914512;29;20048;-76
2023/10/11 00:41:12;;;;;;;12.68;5.70;;;;;;;19.87;52.79;99543.47;4914413;29;20056;-75
2023/10/11 00:43:41;;;;;;;10.00;5.35;;;;;;;19.85;52.97;99537.44;4912915;29;20401;-77
2023/10/11 00:46:09;;;;;;;9.00;4.68;;;;;;;19.83;53.13;99530.56;4914205;29;20044;-77
2023/10/11 00:51:29;;;;;;;7.32;4.55;;;;;;;19.79;53.12;99535.38;4916210;29;20052;-75
2023/10/11 00:53:59;;;;;;;13.63;5.07;;;;;;;19.77;53.07;99542.69;4905507;29;20053;-75
2023/10/11 00:56:31;;;;;;;11.77;4.90;;;;;;;19.74;53.06;99545.69;4917299;29;20047;-76
2023/10/11 00:59:00;;;;;;;6.78;4.30;;;;;;;19.72;52.93;99535.16;4917743;29;20078;-76
2023/10/11 01:01:27;;;;;;;7.65;4.65;;;;;;;19.71;53.35;99543.31;4916268;29;20048;-75
2023/10/11 01:03:54;;;;;;;10.32;4.25;;;;;;;19.70;53.46;99541.66;4912606;29;20131;-75
2023/10/11 01:06:28;;;;;;;8.50;4.53;;;;;;;19.66;53.22;99533.94;4913190;29;20121;-75
2023/10/11 01:08:55;;;;;;;8.02;4.60;;;;;;;19.64;53.13;99538.59;4917539;29;20387;-75
2023/10/11 01:11:22;;;;;;;7.88;4.63;;;;;;;19.63;53.23;99536.91;4917334;29;20056;-75
2023/10/11 01:13:52;;;;;;;12.45;4.38;;;;;;;19.62;53.34;99537.91;4917303;29;20052;-76
2023/10/11 01:16:24;;;;;;;12.25;4.70;;;;;;;19.61;53.58;99538.91;4915996;29;20106;-76
2023/10/11 01:18:51;;;;;;;8.05;4.13;;;;;;;19.59;53.28;99535.53;4909832;29;20056;-76
2023/10/11 01:21:19;;;;;;;7.78;4.85;;;;;;;19.60;53.40;99534.56;4915348;29;20056;-76
2023/10/11 01:23:45;;;;;;;10.10;5.15;;;;;;;19.59;53.35;99532.84;4917119;29;20055;-76
2023/10/11 01:26:12;;;;;;;7.68;4.55;;;;;;;19.58;53.57;99525.03;4917066;29;20052;-75
2023/10/11 01:28:41;;;;;;;8.73;4.63;;;;;;;19.56;53.50;99525.16;4908930;29;20074;-75
2023/10/11 01:31:09;;;;;;;8.18;4.85;;;;;;;19.56;53.53;99522.50;4917179;29;20060;-75
2023/10/11 01:33:43;;;;;;;11.88;5.07;;;;;;;19.54;53.42;99516.44;4914131;29;20048;-76
2023/10/11 01:36:21;;;;;;;8.98;5.03;;;;;;;19.52;53.75;99519.28;4915730;29;20173;-76
2023/10/11 01:38:49;;;;;;;10.73;5.40;;;;;;;19.52;53.56;99505.91;4914141;29;20060;-76
2023/10/11 01:41:19;;;;;;;10.00;4.88;;;;;;;19.50;53.36;99504.41;4913295;29;20143;-76
2023/10/11 01:43:49;;;;;;;9.73;4.82;;;;;;;19.49;53.64;99508.91;4916975;29;20052;-78
2023/10/11 01:46:18;;;;;;;7.05;4.50;;;;;;;19.49;53.40;99516.94;4916581;29;20052;-76
2023/10/11 01:48:45;;;;;;;11.30;5.07;;;;;;;19.48;53.55;99511.75;4915625;29;20099;-76
2023/10/11 01:51:20;;;;;;;13.10;5.10;;;;;;;19.45;53.79;99512.03;4915036;29;20107;-75
2023/10/11 01:53:47;;;;;;;7.70;5.00;;;;;;;19.44;53.48;99499.69;4916606;29;20545;-76
2023/10/11 01:56:13;;;;;;;13.10;5.82;;;;;;;19.40;53.65;99491.97;4916298;29;20044;-77
2023/10/11 01:58:42;;;;;;;14.43;5.13;;;;;;;19.39;53.48;99503.66;4914681;29;20052;-76
2023/10/11 02:01:25;;;;;;;8.23;4.63;;;;;;;19.33;53.71;99496.22;4909851;29;20498;-75
2023/10/11 02:03:56;;;;;;;8.93;5.32;;;;;;;19.36;53.60;99495.94;4915746;29;20135;-75
2023/10/11 02:06:23;;;;;;;10.98;5.13;;;;;;;19.35;53.61;99491.59;4916099;29;20108;-76
2023/10/11 02:08:51;;;;;;;10.35;4.97;;;;;;;19.34;53.76;99491.75;4916045;29;20506;-76
2023/10/11 02:11:29;;;;;;;17.23;5.40;;;;;;;19.33;53.58;99485.56;4911367;29;20556;-77
2023/10/11 02:13:57;;;;;;;8.43;5.13;;;;;;;19.33;53.74;99487.41;4916456;29;20052;-75
2023/10/11 02:16:24;;;;;;;11.60;5.47;;;;;;;19.31;53.90;99492.88;4916076;29;20051;-75
2023/10/11 02:18:58;;;;;;;12.63;5.45;;;;;;;19.31;53.83;99494.69;4916332;29;20064;-76
2023/10/11 02:21:29;;;;;;;11.18;4.97;;;;;;;19.29;53.83;99480.69;4900474;29;20052;-75
2023/10/11 02:23:59;;;;;;;13.02;5.18;;;;;;;19.27;54.02;99487.03;4916356;29;20070;-76
2023/10/11 02:26:35;;;;;;;8.75;4.90;;;;;;;19.28;53.59;99477.16;4915445;29;20131;-75
2023/10/11 02:29:20;;;;;;;9.38;5.28;;;;;;;19.27;54.01;99471.00;4916227;29;20199;-76
2023/10/11 02:31:52;;;;;;;10.88;4.88;;;;;;;19.26;53.85;99476.50;4905404;29;20139;-75
2023/10/11 02:34:19;;;;;;;8.25;5.38;;;;;;;19.27;54.01;99473.69;4915813;29;20048;-76
2023/10/11 02:37:01;;;;;;;12.50;5.72;;;;;;;19.29;53.90;99470.00;4914674;29;20044;-76
2023/10/11 02:39:34;;;;;;;10.95;5.10;;;;;;;19.27;54.20;99476.34;4915982;29;20099;-75
2023/10/11 02:42:01;;;;;;;9.20;5.15;;;;;;;19.28;54.16;99474.50;4910896;29;20048;-76
2023/10/11 02:44:28;;;;;;;9.75;5.03;;;;;;;19.27;53.90;99472.81;4915898;29;20111;-76
2023/10/11 02:46:58;;;;;;;9.00;5.28;;;;;;;19.27;53.99;99470.16;4916125;29;20454;-75
2023/10/11 02:49:31;;;;;;;11.65;5.78;;;;;;;19.27;53.82;99472.81;4915017;29;20143;-75
2023/10/11 02:52:05;;;;;;;11.13;4.97;;;;;;;19.27;53.83;99478.16;4905096;29;20041;-75
2023/10/11 02:54:38;;;;;;;18.35;6.15;;;;;;;19.26;53.94;99471.16;4914879;29;20084;-76
2023/10/11 02:57:20;;;;;;;9.52;5.15;;;;;;;19.25;53.94;99478.31;4915551;29;20130;-76
2023/10/11 02:59:50;;;;;;;11.65;5.70;;;;;;;19.24;53.69;99479.31;4915883;29;20052;-75
2023/10/11 03:02:21;;;;;;;8.18;5.20;;;;;;;19.24;54.05;99473.13;4905167;29;20124;-76
2023/10/11 03:04:49;;;;;;;11.93;5.30;;;;;;;19.23;53.99;99474.97;4915587;29;20056;-75
2023/10/11 03:07:21;;;;;;;10.45;5.07;;;;;;;19.22;54.13;99475.13;4915546;29;20092;-75
2023/10/11 03:09:48;;;;;;;10.65;5.28;;;;;;;19.22;54.17;99477.78;4915844;29;20098;-76
2023/10/11 03:12:18;;;;;;;7.60;4.88;;;;;;;19.20;53.85;99477.06;4913731;29;20051;-76
2023/10/11 03:14:47;;;;;;;11.07;5.55;;;;;;;19.19;54.08;99475.41;4915556;29;20125;-75
2023/10/11 03:17:14;;;;;;;11.02;5.15;;;;;;;19.17;53.85;99478.22;4915394;29;20082;-75
2023/10/11 03:19:42;;;;;;;11.25;5.10;;;;;;;19.16;54.28;99470.38;4915210;29;20569;-76
2023/10/11 03:22:19;;;;;;;13.27;5.53;;;;;;;19.16;54.25;99475.69;4909278;29;20100;-76
2023/10/11 03:25:00;;;;;;;12.50;5.82;;;;;;;19.12;54.17;99465.34;4907072;29;20044;-75
2023/10/11 03:27:27;;;;;;;10.15;5.10;;;;;;;19.14;53.97;99468.69;4913905;29;20557;-77
2023/10/11 03:29:55;;;;;;;12.77;5.35;;;;;;;19.15;54.07;99461.53;4915410;29;20083;-76
2023/10/11 03:32:25;;;;;;;13.00;5.32;;;;;;;19.14;54.11;99458.03;4910155;29;20044;-76
2023/10/11 03:34:52;;;;;;;11.07;5.55;;;;;;;19.14;54.12;99458.03;4910942;29;20051;-76
2023/10/11 03:37:19;;;;;;;9.00;5.13;;;;;;;19.13;53.84;99453.69;4914925;29;20553;-76
2023/10/11 03:39:55;;;;;;;11.93;5.90;;;;;;;19.13;54.12;99453.69;4906134;29;20052;-76
2023/10/11 03:45:08;;;;;;;8.35;4.90;;;;;;;19.12;54.02;99438.66;4914854;29;20143;-75
2023/10/11 03:47:37;;;;;;;9.77;4.57;;;;;;;19.11;54.10;99439.63;4913593;29;20067;-75
2023/10/11 03:50:06;;;;;;;13.15;5.45;;;;;;;19.10;54.13;99431.81;4915170;29;20059;-75
2023/10/11 03:52:33;;;;;;;8.75;5.10;;;;;;;19.08;53.94;99431.97;4907114;29;20123;-75
2023/10/11 03:57:36;;;;;;;11.90;5.07;;;;;;;19.05;54.02;99424.25;4914712;29;20051;-75
2023/10/11 04:00:19;;;;;;;11.50;5.60;;;;;;;19.04;53.66;99419.88;4915104;29;20052;-75
2023/10/11 04:02:45;;;;;;;10.50;5.40;;;;;;;19.03;53.81;99423.53;4909326;29;20059;-77
2023/10/11 04:05:12;;;;;;;10.82;5.78;;;;;;;19.01;53.83;99434.38;4910876;29;20135;-75
2023/10/11 04:07:40;;;;;;;10.65;5.50;;;;;;;19.00;53.76;99429.19;4913375;29;20052;-75
2023/10/11 04:10:19;;;;;;;12.55;4.82;;;;;;;18.98;53.90;99431.13;4914773;29;20075;-75
2023/10/11 04:12:47;;;;;;;9.88;4.88;;;;;;;18.96;53.58;99427.78;4913097;29;20489;-76
2023/10/11 04:15:24;;;;;;;10.18;4.97;;;;;;;18.96;53.78;99433.13;4913137;29;20046;-76
2023/10/11 04:17:51;;;;;;;9.98;4.75;;;;;;;18.92;53.63;99426.41;4914633;29;20501;-76
2023/10/11 04:20:18;;;;;;;7.25;4.47;;;;;;;18.89;53.85;99423.03;4914514;29;20060;-75
2023/10/11 04:22:53;;;;;;;14.32;5.30;;;;;;;18.87;53.90;99418.84;4912983;29;20119;-76
2023/10/11 04:25:23;;;;;;;9.38;5.07;;;;;;;18.85;53.66;99424.38;4910881;29;20052;-75
2023/10/11 04:27:56;;;;;;;8.38;4.38;;;;;;;18.83;53.88;99421.00;4917681;29;20072;-75
2023/10/11 04:30:26;;;;;;;12.82;5.65;;;;;;;18.80;53.73;99412.47;4918501;29;20052;-76
2023/10/11 04:32:56;;;;;;;13.73;5.30;;;;;;;18.78;53.79;99420.59;4911049;29;20194;-76
2023/10/11 04:35:36;;;;;;;11.75;5.22;;;;;;;18.74;54.05;99412.06;4918430;29;20062;-75
2023/10/11 04:38:04;;;;;;;10.00;4.78;;;;;;;18.71;53.87;99419.50;4916807;29;20040;-76
2023/10/11 04:43:05;;;;;;;10.77;5.35;;;;;;;18.65;53.92;99420.13;4918034;29;20040;-76
2023/10/11 04:45:44;;;;;;;9.70;4.40;;;;;;;18.62;54.25;99419.41;4918044;29;20115;-77
2023/10/11 04:48:30;;;;;;;14.27;5.38;;;;;;;18.60;54.04;99399.22;4915789;29;20044;-76
2023/10/11 04:51:04;;;;;;;10.15;5.20;;;;;;;18.57;54.14;99413.69;4911322;29;20051;-76
2023/10/11 04:53:45;;;;;;;11.98;5.28;;;;;;;18.54;54.35;99408.66;4917875;29;20044;-75
2023/10/11 04:59:05;;;;;;;8.13;5.05;;;;;;;18.48;54.35;99414.59;4914718;29;20474;-75
2023/10/11 05:04:16;;;;;;;13.07;5.53;;;;;;;18.40;54.67;99410.00;4917655;29;20782;-76
2023/10/11 05:06:44;;;;;;;12.32;4.90;;;;;;;18.38;54.60;99417.28;4917648;29;20395;-76
2023/10/11 05:11:50;;;;;;;10.95;5.25;;;;;;;18.32;54.77;99418.72;4916600;29;20565;-75
2023/10/11 05:14:28;;;;;;;8.63;5.10;;;;;;;18.31;54.56;99433.03;4917697;29;20079;-75
2023/10/11 05:17:16;;;;;;;9.30;5.45;;;;;;;18.29;54.74;99435.00;4910416;29;20107;-76
2023/10/11 05:19:47;;;;;;;8.45;4.72;;;;;;;18.27;54.75;99430.81;4915466;29;20052;-75
2023/10/11 05:22:29;;;;;;;15.10;5.32;;;;;;;18.25;55.01;99430.09;4906794;29;20045;-77
2023/10/11 05:30:06;;;;;;;11.52;4.97;;;;;;;18.16;55.20;99421.19;4913936;29;20493;-76
2023/10/11 05:32:41;;;;;;;10.80;5.20;;;;;;;18.15;55.11;99422.13;4901645;29;20087;-75
2023/10/11 05:51:39;;;;;;;12.63;5.63;;;;;;;18.06;55.19;99437.16;4916864;29;20143;-76
2023/10/11 05:54:08;;;;;;;8.82;5.22;;;;;;;18.06;55.59;99431.81;4916777;29;20405;-75
2023/10/11 05:56:38;;;;;;;12.02;5.45;;;;;;;18.04;55.45;99423.97;4910766;29;20096;-75
2023/10/11 05:59:09;;;;;;;10.30;5.03;;;;;;;18.05;55.62;99430.16;4910997;29;20062;-75
2023/10/11 06:01:36;;;;;;;11.95;5.07;;;;;;;18.04;55.35;99431.09;4916763;29;20103;-75
2023/10/11 06:04:08;;;;;;;12.18;5.43;;;;;;;18.04;55.55;99431.09;4916705;29;20482;-75
2023/10/11 06:06:46;;;;;;;12.27;5.45;;;;;;;18.04;55.46;99426.63;4912645;29;20422;-76
2023/10/11 06:09:18;;;;;;;9.32;4.93;;;;;;;18.05;55.44;99422.97;4913514;29;20461;-76
2023/10/11 06:11:50;;;;;;;10.32;5.40;;;;;;;18.04;55.70;99412.47;4916625;29;20087;-76
2023/10/11 06:14:18;;;;;;;13.27;5.18;;;;;;;18.06;55.65;99418.50;4916595;29;20095;-76
2023/10/11 06:16:58;;;;;;;10.40;5.68;;;;;;;18.05;56.02;99419.50;4915336;29;20557;-76
2023/10/11 06:19:28;;;;;;;12.27;5.28;;;;;;;18.05;55.47;99428.31;4915769;29;20048;-75
2023/10/11 06:21:56;;;;;;;12.73;5.78;;;;;;;18.05;55.43;99428.31;4916314;29;20060;-75
2023/10/11 06:24:30;;;;;;;10.25;5.38;;;;;;;18.04;55.91;99429.28;4911495;29;20103;-76
2023/10/11 06:27:58;;;;;;;11.77;5.70;;;;;;;18.07;55.49;99423.69;4914322;29;20500;-76
2023/10/11 06:29:45;;;;;;;10.70;5.57;;;;;;;18.07;55.64;99428.16;4908049;29;20056;-75
2023/10/11 06:32:13;;;;;;;11.75;5.25;;;;;;;18.05;55.65;99430.97;4916403;29;20119;-76
2023/10/11 06:34:45;;;;;;;9.38;5.47;;;;;;;18.06;55.81;99432.63;4916203;29;20048;-77
2023/10/11 06:37:16;;;;;;;9.82;4.97;;;;;;;18.07;55.94;99420.16;4915457;29;20048;-75
2023/10/11 06:44:50;;;;;;;11.98;5.63;;;;;;;18.10;56.08;99434.06;4915789;29;20056;-75
2023/10/11 06:47:21;;;;;;;12.48;5.90;;;;;;;18.12;56.03;99441.09;4915959;29;20051;-76
2023/10/11 06:49:53;;;;;;;11.02;5.30;;;;;;;18.14;55.85;99428.44;4913333;29;20052;-76
2023/10/11 06:52:25;;;;;;;11.63;5.65;;;;;;;18.14;56.08;99423.97;4915884;29;20056;-75
2023/10/11 06:55:14;;;;;;;13.63;5.43;;;;;;;18.19;56.27;99423.53;4915612;29;20493;-75
2023/10/11 06:57:50;;;;;;;10.30;5.35;;;;;;;18.22;56.18;99436.56;4915824;29;20060;-77
2023/10/11 07:00:23;;;;;;;9.77;4.93;;;;;;;18.24;56.14;99437.25;4909488;29;20100;-78
2023/10/11 07:05:56;;;;;;;10.13;5.15;;;;;;;18.30;56.07;99444.66;4915622;29;20139;-79
2023/10/11 07:08:35;;;;;;;12.02;5.00;;;;;;;18.33;55.99;99435.53;4913613;29;20050;-78
2023/10/11 07:16:19;;;;;;;16.23;6.53;;;;;;;18.41;56.20;99435.66;4915016;29;20044;-78
2023/10/11 07:18:46;;;;;;;11.65;5.35;;;;;;;18.44;56.32;99439.84;4912831;29;20100;-77
2023/10/11 07:21:15;;;;;;;13.25;6.13;;;;;;;18.47;55.88;99435.06;4914511;29;20103;-78
2023/10/11 07:29:00;;;;;;;13.32;6.00;;;;;;;18.57;56.42;99444.81;4914157;29;20060;-78
2023/10/11 07:31:37;;;;;;;12.35;6.18;;;;;;;18.59;56.39;99448.19;4904832;29;20139;-79
2023/10/11 07:34:06;;;;;;;14.05;6.43;;;;;;;18.65;56.31;99454.78;4914960;29;20576;-77
2023/10/11 07:36:36;;;;;;;10.93;5.97;;;;;;;18.68;56.39;99462.47;4915204;29;20044;-77
2023/10/11 07:39:20;;;;;;;12.05;6.53;;;;;;;18.71;56.32;99467.50;4915240;29;20048;-78
2023/10/11 07:41:48;;;;;;;12.40;5.90;;;;;;;18.77;56.50;99461.59;4909675;29;20079;-79
2023/10/11 07:44:19;;;;;;;9.52;5.65;;;;;;;18.83;56.50;99460.13;4915085;29;20056;-78
2023/10/11 07:46:46;;;;;;;14.45;6.55;;;;;;;18.88;56.30;99463.22;4914775;29;20060;-77
2023/10/11 07:49:22;;;;;;;11.00;6.03;;;;;;;18.93;56.53;99468.09;4915171;29;20131;-78
2023/10/11 07:51:58;;;;;;;12.60;6.38;;;;;;;18.97;56.43;99458.81;4909562;29;20052;-78
2023/10/11 07:54:27;;;;;;;11.38;6.07;;;;;;;19.02;56.42;99453.84;4909753;29;20051;-77
2023/10/11 07:56:57;;;;;;;12.95;6.35;;;;;;;19.06;56.37;99457.94;4914691;29;20044;-78
2023/10/11 07:59:30;;;;;;;11.30;5.95;;;;;;;19.11;56.35;99465.50;4915255;29;20059;-78
2023/10/11 08:02:07;;;;;;;11.35;6.40;;;;;;;19.16;56.44;99470.38;4906008;29;20080;-78
2023/10/11 08:04:47;;;;;;;12.15;6.78;;;;;;;19.21;56.31;99478.78;4918709;29;20048;-79
2023/10/11 08:07:16;;;;;;;11.90;5.82;;;;;;;19.25;56.22;99470.31;4918683;29;20054;-77
2023/10/11 08:09:46;;;;;;;13.68;6.43;;;;;;;19.31;56.14;99473.34;4918651;29;20052;-78
2023/10/11 08:12:16;;;;;;;19.45;6.30;;;;;;;19.33;56.39;99466.88;4913111;29;20127;-76
2023/10/11 08:14:46;;;;;;;14.65;6.63;;;;;;;19.39;56.43;99460.09;4917340;29;20066;-77
2023/10/11 08:17:17;;;;;;;14.73;7.13;;;;;;;19.44;56.01;99468.47;4918421;29;20044;-76
2023/10/11 08:19:44;;;;;;;13.85;6.45;;;;;;;19.47;56.08;99462.03;4918522;29;20063;-77
2023/10/11 08:22:14;;;;;;;12.15;6.70;;;;;;;19.51;55.96;99458.06;4918384;29;20066;-76
2023/10/11 08:24:46;;;;;;;14.30;6.85;;;;;;;19.52;55.68;99454.38;4918609;29;20060;-76
2023/10/11 08:27:14;;;;;;;14.23;6.80;;;;;;;19.58;55.95;99464.44;4917846;29;20135;-76
2023/10/11 08:29:43;;;;;;;10.48;6.60;;;;;;;19.61;56.17;99464.13;4918168;29;20131;-76
2023/10/11 08:32:27;;;;;;;13.98;6.53;;;;;;;19.64;55.97;99449.63;4918634;29;20060;-75
2023/10/11 08:34:54;;;;;;;14.45;6.80;;;;;;;19.66;55.95;99443.16;4918236;29;20052;-76
2023/10/11 08:37:21;;;;;;;12.27;6.60;;;;;;;19.71;56.25;99441.84;4917921;29;20083;-76
2023/10/11 08:39:47;;;;;;;16.50;6.88;;;;;;;19.72;55.66;99441.69;4916602;29;20108;-77
2023/10/11 08:42:17;;;;;;;12.45;7.45;;;;;;;19.76;55.63;99444.88;4908981;29;20549;-76
2023/10/11 08:44:49;;;;;;;13.48;6.93;;;;;;;19.77;55.83;99441.22;4918044;29;20508;-75
2023/10/11 08:47:19;;;;;;;15.98;6.88;;;;;;;19.80;55.88;99443.59;4908376;29;20729;-75
2023/10/11 08:49:49;;;;;;;12.63;7.22;;;;;;;19.82;56.10;99448.78;4918020;29;20111;-76
2023/10/11 08:52:19;;;;;;;11.90;6.60;;;;;;;19.84;55.75;99441.47;4917482;29;20143;-76
2023/10/11 08:54:47;;;;;;;11.25;6.55;;;;;;;19.87;55.86;99438.47;4917659;29;20052;-76
2023/10/11 08:57:14;;;;;;;16.08;6.63;;;;;;;19.90;55.95;99438.16;4910854;29;20048;-76
2023/10/11 08:59:48;;;;;;;12.73;6.57;;;;;;;19.90;56.10;99439.00;4917671;29;20486;-76
2023/10/11 09:02:17;;;;;;;11.93;6.82;;;;;;;19.96;56.19;99432.16;4917698;29;20044;-77
2023/10/11 09:05:07;;;;;;;11.88;7.10;;;;;;;19.96;56.07;99428.69;4917794;29;20103;-76
2023/10/11 09:07:45;;;;;;;15.70;7.05;;;;;;;20.03;55.79;99440.41;4916362;29;20048;-76
2023/10/11 09:10:28;;;;;;;16.60;7.13;;;;;;;20.04;55.66;99429.59;4916543;29;20060;-76
2023/10/11 09:12:57;;;;;;;13.52;7.15;;;;;;;20.11;55.60;99427.13;4910576;29;20052;-76
2023/10/11 09:15:42;;;;;;;12.48;6.70;;;;;;;20.11;56.00;99431.63;4917612;29;20481;-76
2023/10/11 09:18:14;;;;;;;15.45;7.55;;;;;;;20.18;55.90;99438.00;4911108;29;20059;-77
2023/10/11 09:21:08;;;;;;;19.83;7.95;;;;;;;20.20;56.10;99438.72;4916071;29;20087;-75
2023/10/11 09:23:46;;;;;;;14.50;6.78;;;;;;;20.26;55.98;99430.03;4917588;29;20099;-76
2023/10/11 09:26:21;;;;;;;12.18;6.80;;;;;;;20.33;56.04;99435.59;4917308;29;20048;-76
2023/10/11 09:28:56;;;;;;;13.30;6.82;;;;;;;20.37;56.23;99436.94;4909425;29;20498;-75
2023/10/11 09:31:24;;;;;;;15.48;6.35;;;;;;;20.43;56.29;99436.31;4917337;29;20051;-76
2023/10/11 09:33:53;;;;;;;12.88;6.82;;;;;;;20.50;56.26;99427.66;4917235;29;20064;-76
2023/10/11 09:36:24;;;;;;;13.50;6.53;;;;;;;20.57;56.53;99436.72;4917176;29;20048;-77
2023/10/11 09:38:55;;;;;;;15.00;7.22;;;;;;;20.67;56.71;99442.75;4915894;29;20095;-75
2023/10/11 09:41:38;;;;;;;12.15;6.40;;;;;;;20.77;56.79;99439.13;4916930;29;20139;-77
2023/10/11 09:44:12;;;;;;;11.98;6.82;;;;;;;20.90;56.83;99436.03;4916266;29;20100;-76
2023/10/11 09:46:43;;;;;;;13.98;6.82;;;;;;;21.02;56.45;99436.53;4913052;29;20135;-77
2023/10/11 09:49:13;;;;;;;15.68;6.95;;;;;;;21.13;56.49;99432.72;4915400;29;20044;-75
2023/10/11 09:51:42;;;;;;;10.85;6.25;;;;;;;21.21;56.20;99451.47;4914497;29;20066;-79
2023/10/11 09:54:12;;;;;;;12.88;7.78;;;;;;;21.31;56.04;99448.66;4914759;29;20474;-76
2023/10/11 09:56:50;;;;;;;12.98;6.93;;;;;;;21.39;56.46;99477.25;4914434;29;20048;-77
2023/10/11 09:59:47;;;;;;;12.35;6.55;;;;;;;21.47;56.29;99459.38;4914581;29;20044;-76
2023/10/11 10:02:34;;;;;;;10.75;6.90;;;;;;;21.60;56.12;99463.38;4914909;29;20056;-76
2023/10/11 10:05:05;;;;;;;12.13;6.82;;;;;;;21.76;56.00;99467.97;4907240;29;20059;-75
2023/10/11 10:10:08;;;;;;;12.73;6.47;;;;;;;21.95;56.19;99482.00;4910948;29;20108;-76
2023/10/11 10:12:40;;;;;;;11.63;7.05;;;;;;;22.04;55.23;99493.53;4916215;29;20052;-76
2023/10/11 10:15:20;;;;;;;14.25;7.10;;;;;;;22.11;54.92;99491.88;4912447;29;20135;-76
2023/10/11 10:18:05;;;;;;;13.57;6.72;;;;;;;22.16;54.85;99500.22;4911363;29;20083;-75
2023/10/11 10:20:43;;;;;;;17.85;6.97;;;;;;;22.18;54.39;99503.59;4909344;29;20044;-76
2023/10/11 10:23:22;;;;;;;10.55;6.25;;;;;;;22.17;54.81;99496.56;4915326;29;20052;-76
2023/10/11 10:26:07;;;;;;;13.77;6.63;;;;;;;22.16;54.12;99489.50;4911531;29;20095;-75
2023/10/11 10:28:36;;;;;;;13.90;6.60;;;;;;;22.11;54.45;99492.72;4907524;29;20611;-76
2023/10/11 10:31:16;;;;;;;10.13;6.65;;;;;;;22.03;54.79;99479.31;4913909;29;20142;-76
2023/10/11 10:33:50;;;;;;;12.25;6.95;;;;;;;22.02;55.05;99474.13;4910838;29;20044;-76
2023/10/11 10:36:28;;;;;;;11.05;6.53;;;;;;;21.98;55.40;99485.16;4913941;29;20048;-77
2023/10/11 10:41:40;;;;;;;14.30;7.03;;;;;;;22.00;55.33;99512.66;4914019;29;20062;-76
2023/10/11 10:44:12;;;;;;;10.98;7.25;;;;;;;21.98;55.63;99520.00;4913682;29;20107;-76
2023/10/11 10:46:45;;;;;;;15.35;6.57;;;;;;;21.98;55.70;99514.66;4911223;29;20075;-75
2023/10/11 10:49:12;;;;;;;17.50;6.43;;;;;;;21.99;55.38;99526.22;4910507;29;20098;-77
2023/10/11 10:51:42;;;;;;;12.85;6.72;;;;;;;21.97;55.45;99517.50;4913744;29;20493;-75
2023/10/11 10:54:17;;;;;;;12.55;7.13;;;;;;;21.93;55.42;99516.16;4913355;29;20147;-76
2023/10/11 10:56:48;;;;;;;11.02;6.60;;;;;;;21.90;55.79;99508.47;4913219;29;20512;-75
2023/10/11 10:59:20;;;;;;;13.38;7.13;;;;;;;21.87;55.42;99513.16;4911449;29;20512;-76
2023/10/11 11:01:53;;;;;;;12.77;7.50;;;;;;;21.84;55.88;99512.66;4908481;29;20056;-76
2023/10/11 11:04:27;;;;;;;11.80;7.30;;;;;;;21.78;55.72;99530.22;4911411;29;20070;-75
2023/10/11 11:06:55;;;;;;;11.38;7.22;;;;;;;21.77;55.52;99541.09;4915153;29;20115;-75
2023/10/11 11:09:29;;;;;;;16.75;7.80;;;;;;;21.68;55.69;99533.03;4915392;29;20084;-75
2023/10/11 11:12:14;;;;;;;10.10;6.65;;;;;;;21.58;56.09;99524.31;4915158;29;20123;-76
2023/10/11 11:14:58;;;;;;;15.30;7.38;;;;;;;21.52;56.36;99523.13;4913368;29;20052;-76
2023/10/11 11:17:47;;;;;;;15.38;8.38;;;;;;;21.45;56.52;99536.34;4913334;29;20055;-76
2023/10/11 11:20:15;;;;;;;11.63;7.13;;;;;;;21.44;56.14;99526.66;4915126;29;20091;-76
2023/10/11 11:23:00;;;;;;;12.18;8.10;;;;;;;21.37;56.48;99536.31;4913485;29;20469;-75
2023/10/11 11:25:27;;;;;;;16.95;8.35;;;;;;;21.31;56.54;99513.72;4908470;29;20068;-75
2023/10/11 11:28:18;;;;;;;14.07;8.30;;;;;;;21.23;57.28;99524.41;4914426;29;20052;-76
2023/10/11 11:30:51;;;;;;;13.85;8.90;;;;;;;21.19;57.63;99513.19;4914641;29;20135;-76
2023/10/11 11:33:29;;;;;;;14.45;8.63;;;;;;;21.17;57.64;99499.16;4907764;29;20450;-76
2023/10/11 11:35:56;;;;;;;14.07;9.52;;;;;;;21.17;57.49;99507.19;4913204;29;20517;-77
2023/10/11 11:38:23;;;;;;;17.98;10.18;;;;;;;21.17;57.72;99525.06;4914549;29;20672;-76
2023/10/11 11:41:03;;;;;;;14.23;8.85;;;;;;;21.15;57.67;99521.72;4914468;29;20455;-76
2023/10/11 11:43:46;;;;;;;14.00;9.27;;;;;;;21.14;57.92;99528.91;4908547;29;20424;-75
2023/10/11 11:46:17;;;;;;;16.25;9.75;;;;;;;21.14;57.75;99512.84;4913245;29;20060;-77
2023/10/11 11:48:44;;;;;;;16.17;10.13;;;;;;;21.12;57.58;99514.84;4913001;29;20079;-76
2023/10/11 11:51:13;;;;;;;14.95;9.50;;;;;;;21.07;57.75;99511.81;4914191;29;20506;-76
2023/10/11 11:53:44;;;;;;;19.58;10.10;;;;;;;21.04;57.75;99506.81;4913158;29;20052;-77
2023/10/11 11:56:12;;;;;;;14.68;9.70;;;;;;;21.00;57.83;99497.44;4913946;29;20498;-76
2023/10/11 11:58:45;;;;;;;16.88;9.55;;;;;;;20.96;58.06;99492.41;4914235;29;20111;-76
2023/10/11 12:01:19;;;;;;;14.88;9.43;;;;;;;20.93;58.60;99479.34;4911274;29;20060;-76
2023/10/11 12:03:55;;;;;;;20.27;10.43;;;;;;;20.92;58.38;99469.63;4914190;29;20060;-78
2023/10/11 12:06:22;;;;;;;18.90;9.75;;;;;;;20.91;58.66;99451.91;4914118;29;20437;-77
2023/10/11 12:08:57;;;;;;;14.88;9.32;;;;;;;20.89;59.29;99448.56;4914027;29;20048;-77
2023/10/11 12:11:29;;;;;;;13.48;9.65;;;;;;;20.89;59.36;99451.22;4914169;29;20044;-76
2023/10/11 12:14:00;;;;;;;13.43;9.05;;;;;;;20.90;59.53;99447.53;4912593;29;20485;-76
2023/10/11 12:16:28;;;;;;;13.13;9.40;;;;;;;20.91;59.42;99427.84;4907058;29;20052;-76
2023/10/11 12:19:11;;;;;;;14.93;9.13;;;;;;;20.93;59.19;99439.19;4913948;29;20052;-76
2023/10/11 12:21:37;;;;;;;13.88;9.23;;;;;;;20.94;59.21;99442.72;4913678;29;20501;-76
2023/10/11 12:24:11;;;;;;;14.18;8.55;;;;;;;20.95;59.19;99422.97;4906821;29;20123;-76
2023/10/11 12:26:59;;;;;;;14.93;9.20;;;;;;;20.98;59.04;99427.16;4895266;29;20100;-76
2023/10/11 12:29:26;;;;;;;16.80;9.52;;;;;;;20.98;58.80;99421.81;4895399;29;20143;-76
2023/10/11 12:31:58;;;;;;;13.82;8.93;;;;;;;20.98;58.96;99424.50;4904442;29;20665;-76
2023/10/11 12:34:26;;;;;;;15.05;9.38;;;;;;;20.98;59.02;99427.16;4913906;29;20095;-77
2023/10/11 12:36:53;;;;;;;18.25;9.48;;;;;;;20.98;59.14;99428.03;4913509;29;20593;-75
2023/10/11 12:39:20;;;;;;;14.25;8.88;;;;;;;20.98;59.26;99443.22;4913718;29;20066;-76
2023/10/11 12:41:49;;;;;;;14.43;8.95;;;;;;;20.99;59.41;99458.28;4913688;29;20140;-77
2023/10/11 12:44:16;;;;;;;14.55;9.82;;;;;;;21.00;59.41;99446.59;4913528;29;20059;-76
2023/10/11 12:46:49;;;;;;;14.02;9.88;;;;;;;21.00;59.33;99463.47;4908837;29;20056;-76
2023/10/11 12:49:16;;;;;;;20.33;10.43;;;;;;;21.01;59.58;99480.38;4911523;29;20083;-76
2023/10/11 12:51:44;;;;;;;13.57;9.25;;;;;;;21.01;59.57;99472.34;4917064;29;20058;-76
2023/10/11 12:54:15;;;;;;;13.93;9.73;;;;;;;20.99;59.73;99471.66;4916885;29;20052;-77
2023/10/11 12:56:42;;;;;;;17.13;9.65;;;;;;;20.98;59.51;99472.66;4916902;29;20070;-76